sensor_id;sensor_type;location;lat;lon;timestamp;pressure;altitude;pressure_sealevel;temperature;humidity
66176;BME280;52977;44.816;20.538;2023-08-17T00:00:47;99799.59;;;20.00;100.00
66176;BME280;52977;44.816;20.538;2023-08-17T00:03:14;99843.34;;;20.28;100.00
66176;BME280;52977;44.816;20.538;2023-08-17T00:05:40;99844.94;;;20.29;100.00
66176;BME280;52977;44.816;20.538;2023-08-17T00:08:06;99828.56;;;20.09;100.00
66176;BME280;52977;44.816;20.538;2023-08-17T00:10:32;99859.16;;;20.24;100.00
66176;BME280;52977;44.816;20.538;2023-08-17T00:12:59;99842.88;;;20.15;100.00
66176;BME280;52977;44.816;20.538;2023-08-17T00:15:25;99857.94;;;20.21;100.00
66176;BME280;52977;44.816;20.538;2023-08-17T00:17:51;99840.34;;;19.95;100.00
66176;BME280;52977;44.816;20.538;2023-08-17T00:20:17;99861.22;;;19.89;100.00
66176;BME280;52977;44.816;20.538;2023-08-17T00:22:43;99868.81;;;19.96;100.00
66176;BME280;52977;44.816;20.538;2023-08-17T00:25:09;99821.88;;;19.73;100.00
66176;BME280;52977;44.816;20.538;2023-08-17T00:27:36;99854.19;;;19.99;100.00
66176;BME280;52977;44.816;20.538;2023-08-17T00:30:02;99869.16;;;19.91;100.00
66176;BME280;52977;44.816;20.538;2023-08-17T00:32:28;99845.91;;;19.61;100.00
66176;BME280;52977;44.816;20.538;2023-08-17T00:34:54;99858.44;;;19.86;100.00
66176;BME280;52977;44.816;20.538;2023-08-17T00:37:21;99860.97;;;20.02;100.00
66176;BME280;52977;44.816;20.538;2023-08-17T00:39:47;99818.03;;;19.81;100.00
66176;BME280;52977;44.816;20.538;2023-08-17T00:42:13;99860.97;;;20.02;100.00
66176;BME280;52977;44.816;20.538;2023-08-17T00:44:41;99769.69;;;19.34;100.00
66176;BME280;52977;44.816;20.538;2023-08-17T00:47:07;99846.09;;;19.79;100.00
66176;BME280;52977;44.816;20.538;2023-08-17T00:49:34;99842.47;;;19.72;100.00
66176;BME280;52977;44.816;20.538;2023-08-17T00:52:00;99852.06;;;19.82;100.00
66176;BME280;52977;44.816;20.538;2023-08-17T00:54:27;99852.94;;;19.89;100.00
66176;BME280;52977;44.816;20.538;2023-08-17T00:56:55;99847.03;;;19.94;100.00
66176;BME280;52977;44.816;20.538;2023-08-17T00:59:22;99858.97;;;20.02;100.00
66176;BME280;52977;44.816;20.538;2023-08-17T01:01:48;99848.25;;;19.97;100.00
66176;BME280;52977;44.816;20.538;2023-08-17T01:04:15;99827.16;;;19.85;100.00
66176;BME280;52977;44.816;20.538;2023-08-17T01:06:41;99714.88;;;19.05;100.00
66176;BME280;52977;44.816;20.538;2023-08-17T01:09:07;99856.19;;;19.98;100.00
66176;BME280;52977;44.816;20.538;2023-08-17T01:12:00;99855.03;;;20.03;100.00
66176;BME280;52977;44.816;20.538;2023-08-17T01:14:39;99816.19;;;19.96;100.00
66176;BME280;52977;44.816;20.538;2023-08-17T01:17:32;99838.88;;;20.12;100.00
66176;BME280;52977;44.816;20.538;2023-08-17T01:19:58;99846.38;;;20.08;100.00
66176;BME280;52977;44.816;20.538;2023-08-17T01:22:26;99848.75;;;20.10;100.00
66176;BME280;52977;44.816;20.538;2023-08-17T01:24:55;99795.44;;;19.79;100.00
66176;BME280;52977;44.816;20.538;2023-08-17T01:27:24;99842.38;;;20.06;100.00
66176;BME280;52977;44.816;20.538;2023-08-17T01:29:51;99800.63;;;19.80;100.00
66176;BME280;52977;44.816;20.538;2023-08-17T01:32:41;99847.22;;;20.16;100.00
66176;BME280;52977;44.816;20.538;2023-08-17T01:35:21;99843.66;;;20.15;100.00
66176;BME280;52977;44.816;20.538;2023-08-17T01:37:50;99852.31;;;20.10;100.00
66176;BME280;52977;44.816;20.538;2023-08-17T01:40:20;99811.72;;;19.80;100.00
66176;BME280;52977;44.816;20.538;2023-08-17T01:42:46;99804.13;;;19.77;100.00
66176;BME280;52977;44.816;20.538;2023-08-17T01:45:14;99766.72;;;19.50;100.00
66176;BME280;52977;44.816;20.538;2023-08-17T01:47:42;99845.56;;;20.08;100.00
66176;BME280;52977;44.816;20.538;2023-08-17T01:50:09;99833.22;;;19.98;100.00
66176;BME280;52977;44.816;20.538;2023-08-17T01:52:35;99827.22;;;19.89;100.00
66176;BME280;52977;44.816;20.538;2023-08-17T01:55:01;99824.88;;;19.94;100.00
66176;BME280;52977;44.816;20.538;2023-08-17T01:57:27;99835.28;;;20.12;100.00
66176;BME280;52977;44.816;20.538;2023-08-17T01:59:53;99772.03;;;19.69;100.00
66176;BME280;52977;44.816;20.538;2023-08-17T02:02:18;99830.56;;;20.12;100.00
66176;BME280;52977;44.816;20.538;2023-08-17T02:04:44;99830.53;;;20.09;100.00
66176;BME280;52977;44.816;20.538;2023-08-17T02:07:10;99815.81;;;19.97;100.00
66176;BME280;52977;44.816;20.538;2023-08-17T02:09:35;99820.94;;;19.99;100.00
66176;BME280;52977;44.816;20.538;2023-08-17T02:12:01;99830.88;;;20.00;100.00
66176;BME280;52977;44.816;20.538;2023-08-17T02:14:26;99800.56;;;19.77;100.00
66176;BME280;52977;44.816;20.538;2023-08-17T02:16:52;99833.66;;;20.04;100.00
66176;BME280;52977;44.816;20.538;2023-08-17T02:19:18;99802.59;;;19.80;100.00
66176;BME280;52977;44.816;20.538;2023-08-17T02:21:43;99828.88;;;20.01;100.00
66176;BME280;52977;44.816;20.538;2023-08-17T02:24:09;99830.63;;;19.78;100.00
66176;BME280;52977;44.816;20.538;2023-08-17T02:26:35;99840.47;;;19.72;100.00
66176;BME280;52977;44.816;20.538;2023-08-17T02:29:01;99807.13;;;19.58;100.00
66176;BME280;52977;44.816;20.538;2023-08-17T02:31:28;99841.00;;;19.82;100.00
66176;BME280;52977;44.816;20.538;2023-08-17T02:33:56;99830.19;;;19.73;100.00
66176;BME280;52977;44.816;20.538;2023-08-17T02:36:26;99843.34;;;19.79;100.00
66176;BME280;52977;44.816;20.538;2023-08-17T02:38:52;99839.06;;;19.86;100.00
66176;BME280;52977;44.816;20.538;2023-08-17T02:41:18;99834.31;;;19.86;100.00
66176;BME280;52977;44.816;20.538;2023-08-17T02:43:44;99838.31;;;19.92;100.00
66176;BME280;52977;44.816;20.538;2023-08-17T02:46:11;99813.94;;;19.68;100.00
66176;BME280;52977;44.816;20.538;2023-08-17T02:48:38;99831.16;;;19.88;100.00
66176;BME280;52977;44.816;20.538;2023-08-17T02:51:03;99835.13;;;19.90;100.00
66176;BME280;52977;44.816;20.538;2023-08-17T02:53:29;99830.38;;;19.87;100.00
66176;BME280;52977;44.816;20.538;2023-08-17T02:55:54;99834.31;;;19.90;100.00
66176;BME280;52977;44.816;20.538;2023-08-17T02:58:20;99833.47;;;19.82;100.00
66176;BME280;52977;44.816;20.538;2023-08-17T03:00:46;99830.19;;;19.73;100.00
66176;BME280;52977;44.816;20.538;2023-08-17T03:03:13;99778.44;;;19.39;100.00
66176;BME280;52977;44.816;20.538;2023-08-17T03:05:39;99820.31;;;19.75;100.00
66176;BME280;52977;44.816;20.538;2023-08-17T03:08:05;99787.66;;;19.51;100.00
66176;BME280;52977;44.816;20.538;2023-08-17T03:10:31;99785.47;;;19.29;100.00
66176;BME280;52977;44.816;20.538;2023-08-17T03:12:58;99830.75;;;19.48;100.00
66176;BME280;52977;44.816;20.538;2023-08-17T03:15:24;99820.88;;;19.51;100.00
66176;BME280;52977;44.816;20.538;2023-08-17T03:17:51;99823.41;;;19.67;100.00
66176;BME280;52977;44.816;20.538;2023-08-17T03:20:17;99827.41;;;19.73;100.00
66176;BME280;52977;44.816;20.538;2023-08-17T03:22:43;99815.50;;;19.65;100.00
66176;BME280;52977;44.816;20.538;2023-08-17T03:25:10;99829.34;;;19.69;100.00
66176;BME280;52977;44.816;20.538;2023-08-17T03:27:37;99809.50;;;19.59;100.00
66176;BME280;52977;44.816;20.538;2023-08-17T03:30:04;99735.25;;;18.90;100.00
66176;BME280;52977;44.816;20.538;2023-08-17T03:32:30;99826.19;;;19.67;100.00
66176;BME280;52977;44.816;20.538;2023-08-17T03:34:57;99811.00;;;19.53;100.00
66176;BME280;52977;44.816;20.538;2023-08-17T03:37:23;99824.97;;;19.64;100.00
66176;BME280;52977;44.816;20.538;2023-08-17T03:39:50;99825.03;;;19.71;100.00
66176;BME280;52977;44.816;20.538;2023-08-17T03:42:16;99822.66;;;19.70;100.00
66176;BME280;52977;44.816;20.538;2023-08-17T03:44:42;99776.06;;;19.38;100.00
66176;BME280;52977;44.816;20.538;2023-08-17T03:47:08;99826.19;;;19.70;100.00
66176;BME280;52977;44.816;20.538;2023-08-17T03:49:34;99721.19;;;19.06;100.00
66176;BME280;52977;44.816;20.538;2023-08-17T03:52:00;99821.41;;;19.63;100.00
66176;BME280;52977;44.816;20.538;2023-08-17T03:54:27;99839.25;;;19.66;100.00
66176;BME280;52977;44.816;20.538;2023-08-17T03:56:53;99836.09;;;19.71;100.00
66176;BME280;52977;44.816;20.538;2023-08-17T03:59:19;99838.94;;;19.75;100.00
66176;BME280;52977;44.816;20.538;2023-08-17T04:01:45;99840.22;;;19.85;100.00
66176;BME280;52977;44.816;20.538;2023-08-17T04:04:13;99832.31;;;19.83;100.00
66176;BME280;52977;44.816;20.538;2023-08-17T04:06:40;99842.91;;;19.77;100.00
66176;BME280;52977;44.816;20.538;2023-08-17T04:09:07;99816.97;;;19.55;100.00
66176;BME280;52977;44.816;20.538;2023-08-17T04:11:35;99800.06;;;19.64;100.00
66176;BME280;52977;44.816;20.538;2023-08-17T04:14:03;99811.91;;;19.64;100.00
66176;BME280;52977;44.816;20.538;2023-08-17T04:16:29;99843.34;;;19.79;100.00
66176;BME280;52977;44.816;20.538;2023-08-17T04:18:55;99857.09;;;19.72;100.00
66176;BME280;52977;44.816;20.538;2023-08-17T04:21:21;99777.03;;;19.15;100.00
66176;BME280;52977;44.816;20.538;2023-08-17T04:23:48;99864.69;;;19.79;100.00
66176;BME280;52977;44.816;20.538;2023-08-17T04:26:14;99846.78;;;19.69;100.00
66176;BME280;52977;44.816;20.538;2023-08-17T04:28:40;99845.97;;;19.69;100.00
66176;BME280;52977;44.816;20.538;2023-08-17T04:31:06;99864.06;;;19.93;100.00
66176;BME280;52977;44.816;20.538;2023-08-17T04:33:39;99826.69;;;19.76;100.00
66176;BME280;52977;44.816;20.538;2023-08-17T04:36:06;99834.22;;;19.79;100.00
66176;BME280;52977;44.816;20.538;2023-08-17T04:38:32;99860.50;;;19.96;100.00
66176;BME280;52977;44.816;20.538;2023-08-17T04:40:58;99841.78;;;19.82;100.00
66176;BME280;52977;44.816;20.538;2023-08-17T04:43:24;99850.16;;;19.89;100.00
66176;BME280;52977;44.816;20.538;2023-08-17T04:45:51;99811.56;;;19.66;100.00
66176;BME280;52977;44.816;20.538;2023-08-17T04:48:17;99857.22;;;19.83;100.00
66176;BME280;52977;44.816;20.538;2023-08-17T04:50:45;99810.50;;;19.40;100.00
66176;BME280;52977;44.816;20.538;2023-08-17T04:53:11;99857.84;;;19.69;100.00
66176;BME280;52977;44.816;20.538;2023-08-17T04:55:37;99873.00;;;19.79;100.00
66176;BME280;52977;44.816;20.538;2023-08-17T04:58:02;99872.31;;;19.86;100.00
66176;BME280;52977;44.816;20.538;2023-08-17T05:00:28;99846.72;;;19.62;100.00
66176;BME280;52977;44.816;20.538;2023-08-17T05:02:55;99851.03;;;19.59;100.00
66176;BME280;52977;44.816;20.538;2023-08-17T05:05:22;99871.31;;;19.71;100.00
66176;BME280;52977;44.816;20.538;2023-08-17T05:07:49;99841.06;;;19.51;100.00
66176;BME280;52977;44.816;20.538;2023-08-17T05:10:15;99812.34;;;19.29;100.00
66176;BME280;52977;44.816;20.538;2023-08-17T05:12:43;99874.94;;;19.75;100.00
66176;BME280;52977;44.816;20.538;2023-08-17T05:15:09;99872.94;;;19.75;100.00
66176;BME280;52977;44.816;20.538;2023-08-17T05:17:36;99882.56;;;19.85;100.00
66176;BME280;52977;44.816;20.538;2023-08-17T05:20:03;99883.84;;;19.95;100.00
66176;BME280;52977;44.816;20.538;2023-08-17T05:22:30;99856.72;;;19.74;100.00
66176;BME280;52977;44.816;20.538;2023-08-17T05:24:56;99880.31;;;19.98;100.00
66176;BME280;52977;44.816;20.538;2023-08-17T05:27:22;99902.06;;;19.96;100.00
66176;BME280;52977;44.816;20.538;2023-08-17T05:29:49;99886.22;;;19.93;100.00
66176;BME280;52977;44.816;20.538;2023-08-17T05:32:17;99886.63;;;19.95;100.00
66176;BME280;52977;44.816;20.538;2023-08-17T05:34:43;99888.53;;;19.87;100.00
66176;BME280;52977;44.816;20.538;2023-08-17T05:37:08;99880.84;;;19.73;100.00
66176;BME280;52977;44.816;20.538;2023-08-17T05:39:35;99857.75;;;19.58;100.00
66176;BME280;52977;44.816;20.538;2023-08-17T05:42:01;99858.16;;;19.60;100.00
66176;BME280;52977;44.816;20.538;2023-08-17T05:44:27;99860.19;;;19.67;100.00
66176;BME280;52977;44.816;20.538;2023-08-17T05:46:53;99849.09;;;19.63;100.00
66176;BME280;52977;44.816;20.538;2023-08-17T05:49:20;99874.63;;;19.84;100.00
66176;BME280;52977;44.816;20.538;2023-08-17T05:51:46;99883.00;;;19.91;100.00
66176;BME280;52977;44.816;20.538;2023-08-17T05:54:12;99880.69;;;19.96;100.00
66176;BME280;52977;44.816;20.538;2023-08-17T05:56:39;99876.34;;;19.99;100.00
66176;BME280;52977;44.816;20.538;2023-08-17T05:59:10;99787.03;;;19.27;100.00
66176;BME280;52977;44.816;20.538;2023-08-17T06:01:37;99887.38;;;19.92;100.00
66176;BME280;52977;44.816;20.538;2023-08-17T06:04:04;99870.66;;;19.81;100.00
66176;BME280;52977;44.816;20.538;2023-08-17T06:06:31;99885.88;;;20.02;100.00
66176;BME280;52977;44.816;20.538;2023-08-17T06:08:57;99865.59;;;19.90;100.00
66176;BME280;52977;44.816;20.538;2023-08-17T06:11:22;99883.88;;;19.98;100.00
66176;BME280;52977;44.816;20.538;2023-08-17T06:13:49;99872.66;;;19.84;100.00
66176;BME280;52977;44.816;20.538;2023-08-17T06:16:16;99885.81;;;19.94;100.00
66176;BME280;52977;44.816;20.538;2023-08-17T06:18:44;99850.03;;;19.78;100.00
66176;BME280;52977;44.816;20.538;2023-08-17T06:21:10;99860.84;;;19.87;100.00
66176;BME280;52977;44.816;20.538;2023-08-17T06:23:37;99880.41;;;20.09;100.00
66176;BME280;52977;44.816;20.538;2023-08-17T06:26:03;99863.78;;;20.09;100.00
66176;BME280;52977;44.816;20.538;2023-08-17T06:28:29;99888.53;;;20.32;100.00
66176;BME280;52977;44.816;20.538;2023-08-17T06:30:56;99884.56;;;20.33;100.00
66176;BME280;52977;44.816;20.538;2023-08-17T06:33:22;99837.69;;;20.13;100.00
66176;BME280;52977;44.816;20.538;2023-08-17T06:35:48;99882.31;;;20.49;100.00
66176;BME280;52977;44.816;20.538;2023-08-17T06:38:15;99882.25;;;20.39;100.00
66176;BME280;52977;44.816;20.538;2023-08-17T06:40:41;99857.84;;;20.10;100.00
66176;BME280;52977;44.816;20.538;2023-08-17T06:43:07;99892.13;;;20.40;100.00
66176;BME280;52977;44.816;20.538;2023-08-17T06:45:35;99854.28;;;20.10;100.00
66176;BME280;52977;44.816;20.538;2023-08-17T06:48:01;99899.63;;;20.36;100.00
66176;BME280;52977;44.816;20.538;2023-08-17T06:50:27;99878.56;;;20.27;100.00
66176;BME280;52977;44.816;20.538;2023-08-17T06:52:54;99872.28;;;20.34;100.00
66176;BME280;52977;44.816;20.538;2023-08-17T06:55:20;99858.81;;;20.29;100.00
66176;BME280;52977;44.816;20.538;2023-08-17T06:57:47;99831.34;;;20.09;100.00
66176;BME280;52977;44.816;20.538;2023-08-17T07:00:12;99877.84;;;20.34;100.00
66176;BME280;52977;44.816;20.538;2023-08-17T07:02:38;99885.50;;;20.55;100.00
66176;BME280;52977;44.816;20.538;2023-08-17T07:05:04;99914.56;;;20.69;100.00
66176;BME280;52977;44.816;20.538;2023-08-17T07:07:30;99906.56;;;20.63;100.00
66176;BME280;52977;44.816;20.538;2023-08-17T07:09:59;99913.28;;;20.59;100.00
66176;BME280;52977;44.816;20.538;2023-08-17T07:12:24;99903.34;;;20.54;100.00
66176;BME280;52977;44.816;20.538;2023-08-17T07:14:51;99929.59;;;20.68;100.00
66176;BME280;52977;44.816;20.538;2023-08-17T07:17:17;99912.53;;;20.65;100.00
66176;BME280;52977;44.816;20.538;2023-08-17T07:19:43;99923.75;;;20.76;100.00
66176;BME280;52977;44.816;20.538;2023-08-17T07:22:09;99928.47;;;20.76;100.00
66176;BME280;52977;44.816;20.538;2023-08-17T07:24:35;99918.94;;;20.70;100.00
66176;BME280;52977;44.816;20.538;2023-08-17T07:27:01;99924.13;;;20.78;100.00
66176;BME280;52977;44.816;20.538;2023-08-17T07:29:27;99928.13;;;20.81;100.00
66176;BME280;52977;44.816;20.538;2023-08-17T07:31:54;99858.84;;;20.36;100.00
66176;BME280;52977;44.816;20.538;2023-08-17T07:34:20;99922.53;;;20.77;100.00
66176;BME280;52977;44.816;20.538;2023-08-17T07:36:45;99941.19;;;20.80;100.00
66176;BME280;52977;44.816;20.538;2023-08-17T07:39:11;99936.00;;;20.79;100.00
66176;BME280;52977;44.816;20.538;2023-08-17T07:41:36;99872.72;;;20.40;100.00
66176;BME280;52977;44.816;20.538;2023-08-17T07:44:02;99950.69;;;20.79;100.00
66176;BME280;52977;44.816;20.538;2023-08-17T07:46:28;99937.59;;;20.76;100.00
66176;BME280;52977;44.816;20.538;2023-08-17T07:48:53;99947.09;;;20.79;100.00
66176;BME280;52977;44.816;20.538;2023-08-17T07:51:19;99950.69;;;20.79;100.00
66176;BME280;52977;44.816;20.538;2023-08-17T07:53:45;99955.91;;;20.88;100.00
66176;BME280;52977;44.816;20.538;2023-08-17T07:56:10;99898.56;;;20.51;100.00
66176;BME280;52977;44.816;20.538;2023-08-17T07:58:36;99953.53;;;20.90;100.00
66176;BME280;52977;44.816;20.538;2023-08-17T08:01:01;99951.56;;;20.94;100.00
66176;BME280;52977;44.816;20.538;2023-08-17T08:03:27;99942.81;;;20.89;100.00
66176;BME280;52977;44.816;20.538;2023-08-17T08:05:52;99953.91;;;20.85;100.00
66176;BME280;52977;44.816;20.538;2023-08-17T08:08:18;99943.63;;;20.89;100.00
66176;BME280;52977;44.816;20.538;2023-08-17T08:10:45;99888.28;;;20.55;100.00
66176;BME280;52977;44.816;20.538;2023-08-17T08:13:11;99921.41;;;20.82;100.00
66176;BME280;52977;44.816;20.538;2023-08-17T08:15:37;99950.03;;;21.04;100.00
66176;BME280;52977;44.816;20.538;2023-08-17T08:18:02;99946.16;;;21.16;100.00
66176;BME280;52977;44.816;20.538;2023-08-17T08:20:28;99846.25;;;20.46;100.00
66176;BME280;52977;44.816;20.538;2023-08-17T08:22:54;99950.84;;;21.08;100.00
66176;BME280;52977;44.816;20.538;2023-08-17T08:25:20;99912.34;;;20.92;100.00
66176;BME280;52977;44.816;20.538;2023-08-17T08:27:46;99951.00;;;21.30;100.00
66176;BME280;52977;44.816;20.538;2023-08-17T08:30:12;99954.56;;;21.34;100.00
66176;BME280;52977;44.816;20.538;2023-08-17T08:32:39;99919.16;;;21.09;100.00
66176;BME280;52977;44.816;20.538;2023-08-17T08:35:05;99953.34;;;21.28;100.00
66176;BME280;52977;44.816;20.538;2023-08-17T08:37:32;99957.34;;;21.38;100.00
66176;BME280;52977;44.816;20.538;2023-08-17T08:39:58;99952.22;;;21.40;100.00
66176;BME280;52977;44.816;20.538;2023-08-17T08:42:24;99873.50;;;20.92;100.00
66176;BME280;52977;44.816;20.538;2023-08-17T08:44:50;99944.72;;;21.44;100.00
66176;BME280;52977;44.816;20.538;2023-08-17T08:47:17;99918.81;;;21.22;100.00
66176;BME280;52977;44.816;20.538;2023-08-17T08:49:53;99938.72;;;21.42;100.00
66176;BME280;52977;44.816;20.538;2023-08-17T08:52:28;99936.38;;;21.47;100.00
66176;BME280;52977;44.816;20.538;2023-08-17T08:54:58;99927.69;;;21.53;100.00
66176;BME280;52977;44.816;20.538;2023-08-17T08:57:27;99894.69;;;21.37;100.00
66176;BME280;52977;44.816;20.538;2023-08-17T08:59:55;99942.47;;;21.75;100.00
66176;BME280;52977;44.816;20.538;2023-08-17T09:02:21;99931.34;;;21.75;100.00
66176;BME280;52977;44.816;20.538;2023-08-17T09:04:47;99937.72;;;21.82;100.00
66176;BME280;52977;44.816;20.538;2023-08-17T09:07:15;99940.53;;;21.90;100.00
66176;BME280;52977;44.816;20.538;2023-08-17T09:09:44;99932.97;;;21.87;100.00
66176;BME280;52977;44.816;20.538;2023-08-17T09:12:10;99935.75;;;21.87;100.00
66176;BME280;52977;44.816;20.538;2023-08-17T09:14:36;99939.31;;;21.80;100.00
66176;BME280;52977;44.816;20.538;2023-08-17T09:17:05;99938.09;;;21.77;100.00
66176;BME280;52977;44.816;20.538;2023-08-17T09:19:32;99928.19;;;21.83;100.00
66176;BME280;52977;44.816;20.538;2023-08-17T09:21:59;99908.34;;;21.81;100.00
66176;BME280;52977;44.816;20.538;2023-08-17T09:24:33;99924.66;;;22.05;100.00
66176;BME280;52977;44.816;20.538;2023-08-17T09:26:59;99923.88;;;22.18;100.00
66176;BME280;52977;44.816;20.538;2023-08-17T09:29:25;99922.28;;;22.21;100.00
66176;BME280;52977;44.816;20.538;2023-08-17T09:31:51;99910.75;;;22.15;100.00
66176;BME280;52977;44.816;20.538;2023-08-17T09:34:16;99922.28;;;22.32;100.00
66176;BME280;52977;44.816;20.538;2023-08-17T09:36:46;99904.00;;;22.20;100.00
66176;BME280;52977;44.816;20.538;2023-08-17T09:39:12;99895.28;;;22.22;100.00
66176;BME280;52977;44.816;20.538;2023-08-17T09:41:41;99905.22;;;22.26;100.00
66176;BME280;52977;44.816;20.538;2023-08-17T09:44:09;99881.78;;;22.13;100.00
66176;BME280;52977;44.816;20.538;2023-08-17T09:46:34;99874.63;;;22.05;100.00
66176;BME280;52977;44.816;20.538;2023-08-17T09:49:03;99901.25;;;22.24;100.00
66176;BME280;52977;44.816;20.538;2023-08-17T09:51:32;99921.91;;;22.41;100.00
66176;BME280;52977;44.816;20.538;2023-08-17T09:53:58;99909.22;;;22.40;100.00
66176;BME280;52977;44.816;20.538;2023-08-17T09:56:24;99881.78;;;22.24;100.00
66176;BME280;52977;44.816;20.538;2023-08-17T09:58:50;99913.97;;;22.50;100.00
66176;BME280;52977;44.816;20.538;2023-08-17T10:01:18;99911.59;;;22.48;100.00
66176;BME280;52977;44.816;20.538;2023-08-17T10:03:45;99886.56;;;22.34;100.00
66176;BME280;52977;44.816;20.538;2023-08-17T10:06:13;99901.66;;;22.36;100.00
66176;BME280;52977;44.816;20.538;2023-08-17T10:08:43;99890.53;;;22.40;100.00
66176;BME280;52977;44.816;20.538;2023-08-17T10:11:12;99861.13;;;22.21;100.00
66176;BME280;52977;44.816;20.538;2023-08-17T10:16:26;99893.69;;;22.60;100.00
66176;BME280;52977;44.816;20.538;2023-08-17T10:19:00;99885.75;;;22.62;100.00
66176;BME280;52977;44.816;20.538;2023-08-17T10:21:40;99884.50;;;22.81;100.00
66176;BME280;52977;44.816;20.538;2023-08-17T10:24:08;99895.63;;;22.92;100.00
66176;BME280;52977;44.816;20.538;2023-08-17T10:26:35;99886.84;;;22.94;100.00
66176;BME280;52977;44.816;20.538;2023-08-17T10:29:02;99795.97;;;22.51;100.00
66176;BME280;52977;44.816;20.538;2023-08-17T10:31:29;99876.09;;;23.07;100.00
66176;BME280;52977;44.816;20.538;2023-08-17T10:33:56;99823.31;;;22.74;100.00
66176;BME280;52977;44.816;20.538;2023-08-17T10:36:23;99847.16;;;22.86;100.00
66176;BME280;52977;44.816;20.538;2023-08-17T10:39:19;99876.84;;;23.11;100.00
66176;BME280;52977;44.816;20.538;2023-08-17T10:41:47;99872.09;;;23.18;100.00
66176;BME280;52977;44.816;20.538;2023-08-17T10:44:48;99870.09;;;23.19;100.00
66176;BME280;52977;44.816;20.538;2023-08-17T10:47:26;99874.47;;;23.24;100.00
66176;BME280;52977;44.816;20.538;2023-08-17T10:49:56;99868.84;;;23.31;100.00
66176;BME280;52977;44.816;20.538;2023-08-17T10:54:56;99829.97;;;23.13;100.00
66176;BME280;52977;44.816;20.538;2023-08-17T11:00:22;99863.16;;;23.52;100.00
66176;BME280;52977;44.816;20.538;2023-08-17T11:03:00;99873.09;;;23.57;100.00
66176;BME280;52977;44.816;20.538;2023-08-17T11:05:44;99861.19;;;23.53;100.00
66176;BME280;52977;44.816;20.538;2023-08-17T11:08:20;99861.97;;;23.53;100.00
66176;BME280;52977;44.816;20.538;2023-08-17T11:13:44;99838.50;;;23.51;100.00
66176;BME280;52977;44.816;20.538;2023-08-17T11:16:13;99857.19;;;23.54;100.00
66176;BME280;52977;44.816;20.538;2023-08-17T11:18:39;99809.28;;;23.14;100.00
66176;BME280;52977;44.816;20.538;2023-08-17T11:21:07;99858.47;;;23.38;100.00
66176;BME280;52977;44.816;20.538;2023-08-17T11:23:36;99864.44;;;23.41;100.00
66176;BME280;52977;44.816;20.538;2023-08-17T11:26:04;99856.44;;;23.46;100.00
66176;BME280;52977;44.816;20.538;2023-08-17T11:28:32;99850.81;;;23.53;100.00
66176;BME280;52977;44.816;20.538;2023-08-17T11:31:11;99821.38;;;23.52;100.00
66176;BME280;52977;44.816;20.538;2023-08-17T11:33:38;99848.31;;;23.74;100.00
66176;BME280;52977;44.816;20.538;2023-08-17T11:36:06;99839.91;;;23.81;100.00
66176;BME280;52977;44.816;20.538;2023-08-17T11:38:34;99823.25;;;23.74;100.00
66176;BME280;52977;44.816;20.538;2023-08-17T11:41:01;99834.25;;;23.92;100.00
66176;BME280;52977;44.816;20.538;2023-08-17T11:43:29;99794.56;;;23.77;100.00
66176;BME280;52977;44.816;20.538;2023-08-17T11:45:56;99843.19;;;24.21;100.00
66176;BME280;52977;44.816;20.538;2023-08-17T11:48:25;99826.50;;;24.17;100.00
66176;BME280;52977;44.816;20.538;2023-08-17T11:50:52;99803.44;;;24.10;100.00
66176;BME280;52977;44.816;20.538;2023-08-17T11:53:18;99842.75;;;24.26;100.00
66176;BME280;52977;44.816;20.538;2023-08-17T11:55:44;99833.25;;;24.20;100.00
66176;BME280;52977;44.816;20.538;2023-08-17T11:58:11;99804.28;;;24.06;100.00
66176;BME280;52977;44.816;20.538;2023-08-17T12:00:41;99815.00;;;24.12;100.00
66176;BME280;52977;44.816;20.538;2023-08-17T12:03:07;99804.34;;;24.03;100.00
66176;BME280;52977;44.816;20.538;2023-08-17T12:05:33;99830.91;;;24.15;100.00
66176;BME280;52977;44.816;20.538;2023-08-17T12:07:59;99807.00;;;24.14;100.00
66176;BME280;52977;44.816;20.538;2023-08-17T12:10:29;99817.53;;;24.37;100.00
66176;BME280;52977;44.816;20.538;2023-08-17T12:12:58;99811.09;;;24.44;100.00
66176;BME280;52977;44.816;20.538;2023-08-17T12:15:34;99817.03;;;24.49;100.00
66176;BME280;52977;44.816;20.538;2023-08-17T12:18:04;99807.16;;;24.37;100.00
66176;BME280;52977;44.816;20.538;2023-08-17T12:20:32;99768.72;;;24.18;100.00
66176;BME280;52977;44.816;20.538;2023-08-17T12:23:01;99810.69;;;24.45;100.00
66176;BME280;52977;44.816;20.538;2023-08-17T12:25:27;99810.34;;;24.39;100.00
66176;BME280;52977;44.816;20.538;2023-08-17T12:27:54;99808.78;;;24.35;100.00
66176;BME280;52977;44.816;20.538;2023-08-17T12:30:27;99816.09;;;24.21;100.00
66176;BME280;52977;44.816;20.538;2023-08-17T12:32:53;99805.81;;;24.15;100.00
66176;BME280;52977;44.816;20.538;2023-08-17T12:35:19;99805.63;;;24.33;100.00
66176;BME280;52977;44.816;20.538;2023-08-17T12:37:47;99806.97;;;24.59;100.00
66176;BME280;52977;44.816;20.538;2023-08-17T12:40:13;99804.03;;;24.73;100.00
66176;BME280;52977;44.816;20.538;2023-08-17T12:42:38;99772.47;;;24.42;100.00
66176;BME280;52977;44.816;20.538;2023-08-17T12:45:05;99793.63;;;24.39;100.00
66176;BME280;52977;44.816;20.538;2023-08-17T12:47:31;99802.41;;;24.38;100.00
66176;BME280;52977;44.816;20.538;2023-08-17T12:49:57;99749.34;;;24.03;100.00
66176;BME280;52977;44.816;20.538;2023-08-17T12:52:23;99803.22;;;24.35;100.00